Time;durP1;ratioP1;P1;durP2;ratioP2;P2;SDS_P1;SDS_P2;PMS_P1;PMS_P2;Temp;Humidity;BMP_temperature;BMP_pressure;BME280_temperature;BME280_humidity;BME280_pressure;Samples;Min_cycle;Max_cycle;Signal;HPM_P1;HPM_P2
2023/11/30 00:05:07;;;;;;;74.90;26.80;;;;;;;-6.83;100.00;98114.73;272577;1272;22897;-80
2023/11/30 00:11:11;;;;;;;87.90;34.00;;;;;;;-6.77;100.00;98112.25;272304;1272;22486;-81
2023/11/30 00:17:14;;;;;;;107.20;41.30;;;;;;;-6.65;100.00;98113.98;272523;1262;22175;-82
2023/11/30 00:23:16;;;;;;;101.70;40.80;;;;;;;-6.44;100.00;98109.11;272452;1267;22375;-81
2023/11/30 00:29:18;;;;;;;37.30;17.80;;;;;;;-6.03;100.00;98109.37;272359;1269;22209;-81
2023/11/30 00:35:40;;;;;;;26.00;12.40;;;;;;;-5.43;100.00;98105.48;272822;1272;22195;-81
2023/11/30 00:41:42;;;;;;;18.20;8.50;;;;;;;-4.75;100.00;98104.33;272749;1272;22404;-80
2023/11/30 00:47:45;;;;;;;19.00;8.20;;;;;;;-4.02;100.00;98103.04;273155;1279;22186;-81
2023/11/30 00:54:28;;;;;;;19.50;7.50;;;;;;;-3.44;100.00;98103.41;272783;1272;22215;-81
2023/11/30 01:00:29;;;;;;;15.60;7.90;;;;;;;-3.03;100.00;98104.08;272439;1272;23478;-85
2023/11/30 01:06:31;;;;;;;16.80;7.50;;;;;;;-2.86;100.00;98093.29;272444;1272;22388;-85
2023/11/30 01:12:34;;;;;;;15.60;7.00;;;;;;;-2.83;100.00;98093.46;272482;1263;24078;-82
2023/11/30 01:18:36;;;;;;;14.80;7.20;;;;;;;-2.83;100.00;98088.42;272646;1272;22198;-81
2023/11/30 01:24:38;;;;;;;15.80;8.10;;;;;;;-2.72;100.00;98079.69;272788;1275;22262;-82
2023/11/30 01:31:01;;;;;;;17.80;8.90;;;;;;;-2.65;100.00;98079.30;272635;1272;22251;-82
2023/11/30 01:37:03;;;;;;;18.10;8.70;;;;;;;-2.55;100.00;98078.35;272450;1272;22327;-82
2023/11/30 01:43:06;;;;;;;14.80;8.00;;;;;;;-2.50;100.00;98074.67;272398;1266;22247;-86
2023/11/30 01:49:09;;;;;;;16.40;8.10;;;;;;;-2.61;100.00;98069.11;272350;1272;22497;-82
2023/11/30 01:55:14;;;;;;;15.60;7.70;;;;;;;-2.80;100.00;98066.22;272293;1272;22208;-82
2023/11/30 02:01:40;;;;;;;18.30;7.50;;;;;;;-2.97;100.00;98061.64;272725;1273;22373;-81
2023/11/30 02:08:01;;;;;;;15.70;7.70;;;;;;;-2.97;100.00;98058.23;273164;1280;22203;-82
2023/11/30 02:14:03;;;;;;;82.50;32.10;;;;;;;-3.08;100.00;98059.27;272660;1272;22221;-79
2023/11/30 02:20:06;;;;;;;73.60;31.40;;;;;;;-3.36;100.00;98059.01;272836;1275;22277;-81
2023/11/30 02:26:09;;;;;;;76.40;32.30;;;;;;;-3.59;100.00;98061.08;268532;1273;5604856;-81
2023/11/30 02:33:09;;;;;;;;;;;;;;;;;;;;;
2023/11/30 02:39:16;;;;;;;75.30;32.40;;;;;;;-4.02;100.00;98053.90;268415;1277;22380;-80
2023/11/30 02:45:17;;;;;;;73.10;31.90;;;;;;;-4.24;100.00;98052.80;269233;1277;22215;-80
2023/11/30 02:51:20;;;;;;;83.30;35.20;;;;;;;-4.41;100.00;98052.71;269923;1267;23450;-81
2023/11/30 02:57:27;;;;;;;82.10;33.50;;;;;;;-4.54;100.00;98050.23;269669;1276;22302;-82
2023/11/30 03:03:50;;;;;;;82.60;32.40;;;;;;;-4.52;100.00;98052.33;268648;1273;23052;-80
2023/11/30 03:09:53;;;;;;;73.10;32.70;;;;;;;-4.42;100.00;98049.77;269088;1280;22247;-80
2023/11/30 03:15:56;;;;;;;78.10;31.50;;;;;;;-4.36;100.00;98040.63;268895;1280;24381;-80
2023/11/30 03:21:58;;;;;;;38.70;18.50;;;;;;;-4.22;100.00;98035.94;268499;1280;22511;-82
2023/11/30 03:28:38;;;;;;;34.40;14.90;;;;;;;-3.89;100.00;98039.36;268809;1273;22284;-80
2023/11/30 03:34:41;;;;;;;27.90;11.60;;;;;;;-3.63;100.00;98036.04;270648;1279;22404;-81
2023/11/30 03:41:02;;;;;;;25.30;12.40;;;;;;;-3.40;100.00;98036.58;270176;1279;23455;-80
2023/11/30 03:47:05;;;;;;;29.40;13.60;;;;;;;-3.19;100.00;98037.21;271731;1279;22265;-80
2023/11/30 03:53:27;;;;;;;25.50;12.40;;;;;;;-2.98;100.00;98025.47;271852;1283;22260;-81
2023/11/30 03:59:31;;;;;;;20.00;10.30;;;;;;;-2.71;100.00;98017.27;271574;1279;22255;-81
2023/11/30 04:05:33;;;;;;;16.50;9.00;;;;;;;-2.38;100.00;98016.96;271493;1275;22560;-81
2023/11/30 04:11:34;;;;;;;20.60;9.30;;;;;;;-2.16;100.00;98021.77;269744;1273;22663;-81
2023/11/30 04:17:39;;;;;;;14.20;8.40;;;;;;;-1.98;100.00;98024.61;268816;1279;22567;-81
2023/11/30 04:23:42;;;;;;;16.70;8.50;;;;;;;-1.79;100.00;98028.88;268357;1276;22590;-80
2023/11/30 04:29:44;;;;;;;15.00;8.60;;;;;;;-1.61;100.00;98025.11;268121;1276;22551;-81
2023/11/30 04:35:46;;;;;;;15.70;8.40;;;;;;;-1.45;100.00;98018.60;268584;1276;25318;-81
2023/11/30 04:42:32;;;;;;;14.20;7.20;;;;;;;-1.31;100.00;98013.48;268202;1270;22590;-81
2023/11/30 04:48:35;;;;;;;12.90;7.40;;;;;;;-1.19;100.00;98011.40;268259;1279;22559;-82
2023/11/30 04:54:46;;;;;;;12.90;7.50;;;;;;;-1.08;100.00;98009.68;268041;1273;22540;-80
2023/11/30 05:00:48;;;;;;;14.50;7.80;;;;;;;-1.01;100.00;98003.46;269077;1279;22566;-81
2023/11/30 05:06:52;;;;;;;12.60;7.40;;;;;;;-0.95;100.00;97998.69;268513;1270;22569;-82
2023/11/30 05:12:55;;;;;;;14.40;8.20;;;;;;;-0.93;100.00;97993.08;269330;1279;22204;-82
2023/11/30 05:19:18;;;;;;;14.40;8.30;;;;;;;-0.91;100.00;97992.25;271863;1277;22450;-82
2023/11/30 05:25:22;;;;;;;21.00;10.40;;;;;;;-0.92;100.00;97986.44;271392;1274;22620;-82
2023/11/30 05:31:24;;;;;;;15.30;8.80;;;;;;;-0.99;100.00;97983.27;269818;1277;22422;-82
2023/11/30 05:37:26;;;;;;;36.70;17.00;;;;;;;-1.10;100.00;97986.21;269538;1280;22229;-82
2023/11/30 05:44:08;;;;;;;16.80;9.30;;;;;;;-1.24;100.00;97987.04;270930;1279;22973;-81
2023/11/30 05:50:10;;;;;;;18.70;11.40;;;;;;;-1.30;100.00;97982.23;268456;1275;23346;-81
2023/11/30 05:56:12;;;;;;;23.40;12.20;;;;;;;-1.28;100.00;97975.34;268038;1279;22578;-82
2023/11/30 06:02:17;;;;;;;22.50;12.10;;;;;;;-1.33;100.00;97973.14;268720;1279;22571;-81
2023/11/30 06:08:19;;;;;;;20.10;10.50;;;;;;;-1.35;100.00;97975.43;269808;1270;22360;-83
2023/11/30 06:14:21;;;;;;;24.70;11.00;;;;;;;-1.38;100.00;97980.36;271081;1274;22271;-82
2023/11/30 06:20:23;;;;;;;14.20;8.20;;;;;;;-1.40;100.00;97978.36;269226;1270;22718;-81
2023/11/30 06:26:25;;;;;;;12.50;7.50;;;;;;;-1.39;100.00;97978.18;270070;1276;22862;-81
2023/11/30 06:32:27;;;;;;;13.30;7.70;;;;;;;-1.32;100.00;97979.08;270202;1279;23109;-81
2023/11/30 06:38:30;;;;;;;10.80;6.50;;;;;;;-1.23;100.00;97981.36;270892;1279;22569;-82
2023/11/30 06:44:42;;;;;;;17.50;9.00;;;;;;;-1.16;100.00;97985.19;270586;1271;22234;-81
2023/11/30 06:50:44;;;;;;;13.90;8.30;;;;;;;-1.33;100.00;97991.63;271014;1280;22222;-83
2023/11/30 06:56:47;;;;;;;21.00;11.00;;;;;;;-1.53;100.00;97999.98;271147;1279;22412;-80
2023/11/30 07:02:58;;;;;;;27.60;13.90;;;;;;;-1.71;100.00;98015.02;271258;1271;22405;-82
2023/11/30 07:09:00;;;;;;;31.30;14.00;;;;;;;-1.79;100.00;98015.32;271272;1278;22468;-81
2023/11/30 07:15:46;;;;;;;31.80;15.70;;;;;;;-1.84;100.00;98017.63;271377;1279;22243;-81
2023/11/30 07:21:52;;;;;;;126.90;38.40;;;;;;;-1.89;100.00;98017.99;271720;1283;22194;-80
2023/11/30 07:27:54;;;;;;;263.70;74.20;;;;;;;-1.90;100.00;98015.34;271923;1282;22174;-81
2023/11/30 07:33:58;;;;;;;127.10;51.90;;;;;;;-1.92;100.00;98019.41;270679;1279;22522;-81
2023/11/30 07:40:02;;;;;;;48.60;25.10;;;;;;;-1.93;100.00;98028.95;269400;1280;23120;-81
2023/11/30 07:46:07;;;;;;;60.90;25.30;;;;;;;-1.92;100.00;98032.45;270697;1280;22296;-82
2023/11/30 07:52:10;;;;;;;77.80;31.20;;;;;;;-1.94;100.00;98040.08;271256;1265;24858;-82
2023/11/30 07:58:12;;;;;;;65.20;25.20;;;;;;;-1.96;100.00;98047.98;271591;1270;23024;-82
2023/11/30 08:04:14;;;;;;;54.40;23.20;;;;;;;-1.92;100.00;98040.47;271140;1280;23817;-82
2023/11/30 08:10:16;;;;;;;50.10;23.60;;;;;;;-1.86;100.00;98035.92;269000;1274;24652;-82
2023/11/30 08:16:55;;;;;;;;;;;;;;;;;;;;;
2023/11/30 08:23:05;;;;;;;43.90;21.20;;;;;;;-1.27;100.00;98022.46;270217;1277;22349;-82
2023/11/30 08:29:11;;;;;;;54.50;23.30;;;;;;;-0.93;100.00;98020.48;270872;1280;22697;-82
2023/11/30 08:35:13;;;;;;;45.70;19.10;;;;;;;-0.42;100.00;98018.20;269631;1272;22587;-82
2023/11/30 08:41:21;;;;;;;52.20;22.40;;;;;;;0.05;100.00;98018.34;269032;1279;22399;-82
2023/11/30 08:47:24;;;;;;;55.90;22.30;;;;;;;0.81;100.00;98023.30;269029;1279;22639;-83
2023/11/30 08:53:29;;;;;;;32.30;17.00;;;;;;;1.67;100.00;98019.27;269059;1280;22586;-84
2023/11/30 08:59:32;;;;;;;28.80;15.30;;;;;;;2.49;100.00;98013.91;270077;1276;22409;-84
2023/11/30 09:05:40;;;;;;;32.00;17.00;;;;;;;3.02;100.00;98010.49;271663;1277;22364;-83
2023/11/30 09:11:59;;;;;;;29.90;16.20;;;;;;;3.35;100.00;98009.66;271315;1279;22441;-84
2023/11/30 09:18:15;;;;;;;24.50;15.70;;;;;;;3.47;99.92;98006.88;271321;1279;22359;-84
2023/11/30 09:24:29;;;;;;;32.50;15.00;;;;;;;3.70;99.88;98001.50;271810;1277;22212;-84
2023/11/30 09:30:31;;;;;;;25.40;14.20;;;;;;;4.11;99.93;97991.22;270960;1278;22228;-84
2023/11/30 09:36:39;;;;;;;29.80;15.30;;;;;;;4.33;99.52;97987.42;271132;1279;23062;-86
2023/11/30 09:43:14;;;;;;;;;;;;;;;;;;;;;
2023/11/30 09:50:07;;;;;;;19.00;12.00;;;;;;;5.13;97.83;97980.08;270924;1280;23676;-84
2023/11/30 09:56:10;;;;;;;26.10;13.40;;;;;;;5.24;96.94;97971.27;271867;1280;22773;-84
2023/11/30 10:02:15;;;;;;;19.00;12.40;;;;;;;5.67;96.62;97955.16;271909;1286;23486;-84
2023/11/30 10:08:58;;;;;;;18.70;10.30;;;;;;;5.93;94.77;97941.79;271646;1279;22339;-84
2023/11/30 10:15:21;;;;;;;41.00;18.50;;;;;;;5.97;93.72;97927.71;271523;1279;22187;-85
2023/11/30 10:21:48;;;;;;;25.20;13.40;;;;;;;6.14;92.30;97916.66;270824;1278;22243;-85
2023/11/30 10:28:05;;;;;;;29.00;17.60;;;;;;;6.19;91.38;97906.71;271445;1279;22359;-85
2023/11/30 10:35:07;;;;;;;18.10;8.90;;;;;;;6.04;89.67;97894.11;271720;1279;23179;-85
2023/11/30 10:41:27;;;;;;;10.10;6.60;;;;;;;5.90;88.88;97889.38;271073;1279;22665;-84
2023/11/30 10:47:31;;;;;;;12.40;7.10;;;;;;;5.80;88.28;97887.92;269872;1279;23527;-86
2023/11/30 10:54:12;;;;;;;135.00;62.50;;;;;;;5.40;88.16;97885.67;269687;1279;22547;-86
2023/11/30 11:00:39;;;;;;;37.40;20.40;;;;;;;4.87;86.22;97886.77;270664;1280;23634;-85
2023/11/30 11:07:29;;;;;;;18.30;13.20;;;;;;;4.52;85.63;97877.05;269413;1279;22577;-85
2023/11/30 11:21:03;;;;;;;9.50;5.10;;;;;;;4.18;84.20;97866.23;271731;1281;22689;-86
2023/11/30 11:28:17;;;;;;;;;;;;;;;;;;;;;
2023/11/30 11:35:10;;;;;;;8.30;4.60;;;;;;;4.00;83.16;97846.04;269647;1289;22850;-86
2023/11/30 11:41:26;;;;;;;8.60;5.30;;;;;;;3.84;83.10;97836.12;268992;1280;23492;-87
2023/11/30 11:47:31;;;;;;;9.50;5.70;;;;;;;3.64;82.62;97832.95;270945;1270;22344;-87
2023/11/30 11:53:40;;;;;;;10.10;5.40;;;;;;;3.53;82.09;97831.20;270965;1280;22856;-87
2023/11/30 11:59:46;;;;;;;11.90;5.90;;;;;;;3.41;81.60;97831.19;270733;1279;22185;-87
2023/11/30 12:05:54;;;;;;;14.00;6.70;;;;;;;3.25;81.57;97830.86;270879;1279;22260;-88
2023/11/30 12:12:32;;;;;;;11.90;7.00;;;;;;;3.08;81.49;97815.73;271063;1279;22625;-88
2023/11/30 12:18:35;;;;;;;9.30;5.80;;;;;;;2.94;82.12;97819.69;270841;1279;22204;-86
2023/11/30 12:25:29;;;;;;;10.50;5.80;;;;;;;2.91;82.18;97814.75;271523;1276;22199;-87
2023/11/30 12:32:01;;;;;;;11.20;6.80;;;;;;;2.88;82.37;97806.34;271961;1286;23462;-86
2023/11/30 12:38:56;;;;;;;13.60;8.10;;;;;;;2.81;82.59;97797.53;271791;1280;22370;-87
2023/11/30 12:45:07;;;;;;;16.00;7.10;;;;;;;2.80;82.59;97786.23;271918;1287;22978;-88
2023/11/30 12:52:11;;;;;;;12.70;7.30;;;;;;;2.71;82.52;97782.64;271814;1281;22248;-86
2023/11/30 12:58:40;;;;;;;13.30;7.70;;;;;;;2.76;82.90;97774.86;270636;1280;22320;-87
2023/11/30 13:05:07;;;;;;;13.40;7.20;;;;;;;2.84;82.51;97763.86;270367;1279;22253;-86
2023/11/30 13:11:12;;;;;;;58.30;34.40;;;;;;;2.90;82.16;97761.90;270285;1279;22552;-86
2023/11/30 13:18:06;;;;;;;13.90;7.50;;;;;;;2.92;81.84;97767.11;269256;1280;22359;-87
2023/11/30 13:24:09;;;;;;;10.50;6.30;;;;;;;2.83;81.38;97774.27;271399;1280;23428;-85
2023/11/30 13:30:24;;;;;;;12.80;6.70;;;;;;;2.57;81.66;97769.82;271883;1280;22231;-86
2023/11/30 13:36:30;;;;;;;30.10;13.80;;;;;;;2.39;81.93;97760.22;271727;1287;22218;-86
2023/11/30 13:42:32;;;;;;;17.50;8.90;;;;;;;2.28;82.26;97758.04;271442;1280;25464;-84
2023/11/30 13:48:49;;;;;;;25.60;11.40;;;;;;;2.13;82.83;97755.59;269277;1280;22573;-85
2023/11/30 13:55:20;;;;;;;105.60;49.70;;;;;;;1.89;83.31;97753.92;270133;1278;23825;-85
2023/11/30 14:01:23;;;;;;;43.50;22.30;;;;;;;1.63;83.63;97751.33;270104;1279;22218;-85
2023/11/30 14:07:31;;;;;;;45.30;21.50;;;;;;;1.48;84.06;97751.64;271449;1283;22992;-85
2023/11/30 14:13:55;;;;;;;30.70;17.30;;;;;;;1.32;84.40;97757.14;272007;1283;22942;-85
2023/11/30 14:20:06;;;;;;;31.70;17.50;;;;;;;1.08;84.63;97763.23;271990;1284;22197;-85
2023/11/30 14:26:50;;;;;;;54.00;29.00;;;;;;;0.85;84.77;97765.12;267587;1279;5515398;-86
2023/11/30 14:32:54;;;;;;;22.20;11.80;;;;;;;0.65;85.27;97762.91;271965;1286;23152;-86
2023/11/30 14:39:27;;;;;;;30.50;15.10;;;;;;;0.46;85.48;97752.95;272034;1280;22236;-85
2023/11/30 14:45:54;;;;;;;31.40;15.00;;;;;;;0.20;85.57;97757.38;271972;1279;23548;-85
2023/11/30 14:52:17;;;;;;;34.90;17.90;;;;;;;0.06;86.11;97769.21;271524;1280;22244;-85
2023/11/30 14:58:20;;;;;;;38.30;19.10;;;;;;;-0.09;86.16;97765.75;270924;1279;22452;-84
2023/11/30 15:04:47;;;;;;;49.00;20.80;;;;;;;-0.24;86.39;97762.54;269249;1280;22428;-85
2023/11/30 15:10:50;;;;;;;36.80;17.80;;;;;;;-0.49;86.31;97760.00;268132;1280;22619;-84
2023/11/30 15:16:52;;;;;;;34.10;18.10;;;;;;;-0.80;86.63;97756.47;267807;1278;22596;-84
2023/11/30 15:23:14;;;;;;;39.90;19.20;;;;;;;-0.87;87.27;97756.75;269741;1277;22166;-83
2023/11/30 15:29:41;;;;;;;39.00;19.30;;;;;;;-1.01;87.56;97750.05;270262;1279;22699;-83
2023/11/30 15:35:43;;;;;;;43.10;20.40;;;;;;;-1.10;87.74;97748.39;270188;1279;22390;-83
2023/11/30 15:41:50;;;;;;;45.40;21.90;;;;;;;-1.29;87.62;97752.68;269261;1274;22742;-83
2023/11/30 15:48:46;;;;;;;44.40;20.80;;;;;;;-1.35;88.70;97753.40;269350;1279;22214;-83
2023/11/30 15:54:48;;;;;;;51.70;25.30;;;;;;;-1.34;89.25;97754.81;268827;1279;23256;-83
2023/11/30 16:01:30;;;;;;;51.60;24.80;;;;;;;-1.32;89.58;97756.46;269173;1273;22238;-83
2023/11/30 16:08:34;;;;;;;54.90;24.50;;;;;;;-1.28;90.03;97750.05;269509;1280;24937;-82
2023/11/30 16:15:36;;;;;;;63.50;28.50;;;;;;;-1.28;90.30;97745.13;271393;1282;22213;-82
2023/11/30 16:21:43;;;;;;;83.30;41.60;;;;;;;-1.31;90.42;97729.13;271782;1280;22261;-82
2023/11/30 16:28:00;;;;;;;67.50;32.60;;;;;;;-1.33;90.87;97719.94;271469;1280;22627;-85
2023/11/30 16:34:02;;;;;;;62.50;29.20;;;;;;;-1.34;91.38;97726.58;269662;1279;23141;-82
2023/11/30 16:40:25;;;;;;;60.00;27.40;;;;;;;-1.32;92.07;97740.06;271369;1280;23491;-84
2023/11/30 16:46:33;;;;;;;50.10;24.80;;;;;;;-1.23;92.68;97736.94;271445;1274;23334;-83
2023/11/30 16:52:36;;;;;;;52.60;26.10;;;;;;;-1.18;93.12;97709.73;271945;1280;22262;-83
2023/11/30 16:59:29;;;;;;;117.20;55.90;;;;;;;-1.18;93.11;97689.64;271977;1280;22250;-82
2023/11/30 17:05:14;;;;;;;113.40;54.40;;;;;;;-1.22;92.83;97696.34;270773;1273;22559;-82
2023/11/30 17:11:43;;;;;;;79.20;39.30;;;;;;;-1.21;93.28;97704.73;270251;1280;23478;-83
2023/11/30 17:17:49;;;;;;;71.00;33.20;;;;;;;-1.16;93.91;97701.59;270781;1277;22222;-82
2023/11/30 17:23:57;;;;;;;47.90;23.50;;;;;;;-1.12;94.38;97686.33;271545;1269;22230;-83
2023/11/30 17:30:24;;;;;;;84.40;40.50;;;;;;;-1.15;94.22;97678.55;262352;1273;10001705;-84
2023/11/30 17:36:56;;;;;;;95.30;44.50;;;;;;;-1.20;94.32;97679.14;269481;1277;22610;-82
2023/11/30 17:43:00;;;;;;;85.70;43.40;;;;;;;-1.15;94.34;97671.42;270314;1270;22480;-83
2023/11/30 17:49:03;;;;;;;94.20;44.10;;;;;;;-1.17;94.45;97664.59;269874;1279;24366;-82
2023/11/30 17:55:06;;;;;;;69.50;36.70;;;;;;;-1.13;94.82;97669.11;271078;1279;22312;-83
2023/11/30 18:01:31;;;;;;;78.70;39.70;;;;;;;-1.05;95.38;97685.50;271497;1278;22356;-82
2023/11/30 18:07:47;;;;;;;82.00;40.90;;;;;;;-0.98;95.92;97682.44;271675;1286;23098;-83
2023/11/30 18:14:19;;;;;;;86.00;43.70;;;;;;;-0.91;96.28;97683.63;271133;1280;22555;-82
2023/11/30 18:20:44;;;;;;;100.70;47.20;;;;;;;-0.93;95.94;97677.17;271274;1280;22223;-82
2023/11/30 18:26:46;;;;;;;103.20;46.60;;;;;;;-0.95;96.17;97665.69;271452;1274;23153;-80
2023/11/30 18:32:49;;;;;;;89.60;43.40;;;;;;;-0.93;96.41;97672.89;271623;1270;23543;-81
2023/11/30 18:39:00;;;;;;;86.30;40.50;;;;;;;-0.89;96.66;97669.50;270683;1280;22169;-83
2023/11/30 18:45:03;;;;;;;106.00;50.10;;;;;;;-0.86;96.67;97670.05;271762;1279;22555;-81
2023/11/30 18:51:10;;;;;;;106.00;51.20;;;;;;;-0.84;96.86;97659.99;271967;1282;23002;-82
2023/11/30 18:57:21;;;;;;;100.50;47.00;;;;;;;-0.87;96.79;97651.50;270699;1279;22282;-82
2023/11/30 19:04:16;;;;;;;108.10;49.80;;;;;;;-0.93;97.21;97617.16;270591;1280;22564;-83
2023/11/30 19:11:05;;;;;;;187.80;76.60;;;;;;;-0.95;97.37;97602.51;271843;1280;23370;-82
2023/11/30 19:17:31;;;;;;;123.60;49.70;;;;;;;-0.94;97.18;97630.19;271713;1283;22343;-82
2023/11/30 19:24:34;;;;;;;127.40;52.80;;;;;;;-0.94;97.33;97665.85;271499;1280;22299;-82
2023/11/30 19:31:22;;;;;;;149.40;59.00;;;;;;;-0.99;97.13;97679.97;271963;1280;22214;-82
2023/11/30 19:37:30;;;;;;;104.20;43.40;;;;;;;-0.93;97.65;97682.45;271259;1280;22557;-82
2023/11/30 19:43:32;;;;;;;125.50;53.30;;;;;;;-0.94;97.64;97675.52;269315;1280;22242;-82
2023/11/30 19:49:55;;;;;;;110.40;46.40;;;;;;;-0.85;98.26;97668.23;270148;1279;22250;-81
2023/11/30 19:55:58;;;;;;;105.70;43.50;;;;;;;-0.80;98.29;97649.67;270471;1277;22587;-84
2023/11/30 20:02:00;;;;;;;87.80;39.90;;;;;;;-0.81;98.41;97637.05;270874;1279;22400;-82
2023/11/30 20:08:23;;;;;;;84.50;37.80;;;;;;;-0.80;98.71;97637.07;271507;1271;22239;-82
2023/11/30 20:14:29;;;;;;;84.60;38.40;;;;;;;-0.80;98.63;97623.66;271093;1279;23806;-82
2023/11/30 20:20:33;;;;;;;96.50;43.00;;;;;;;-0.79;98.77;97613.73;271089;1283;22811;-81
2023/11/30 20:26:40;;;;;;;105.40;44.90;;;;;;;-0.77;98.60;97584.31;271030;1280;22253;-81
2023/11/30 20:32:47;;;;;;;95.10;43.30;;;;;;;-0.76;98.55;97564.61;271448;1279;22238;-81
2023/11/30 20:38:50;;;;;;;88.60;38.60;;;;;;;-0.75;98.91;97596.42;271918;1279;23302;-81
2023/11/30 20:45:18;;;;;;;102.70;42.60;;;;;;;-0.72;99.34;97627.21;271484;1282;22252;-81
2023/11/30 20:51:21;;;;;;;95.30;40.60;;;;;;;-0.67;99.47;97624.48;271912;1280;22240;-82
2023/11/30 20:57:23;;;;;;;98.90;42.00;;;;;;;-0.66;99.51;97586.97;271027;1280;22199;-82
2023/11/30 21:04:34;;;;;;;99.50;45.50;;;;;;;-0.67;99.28;97589.91;271815;1280;22557;-82
2023/11/30 21:10:51;;;;;;;98.50;45.70;;;;;;;-0.69;99.25;97592.99;271459;1279;22236;-81
2023/11/30 21:16:53;;;;;;;94.50;43.90;;;;;;;-0.67;99.61;97612.79;271454;1280;22684;-82
2023/11/30 21:23:27;;;;;;;94.50;44.50;;;;;;;-0.68;99.53;97601.64;271666;1279;22319;-81
2023/11/30 21:30:09;;;;;;;110.00;54.00;;;;;;;-0.69;99.81;97615.50;271755;1280;22208;-81
2023/11/30 21:36:25;;;;;;;100.00;48.20;;;;;;;-0.66;99.98;97607.78;271766;1280;22232;-83
2023/11/30 21:42:46;;;;;;;97.30;46.90;;;;;;;-0.59;100.00;97610.98;270352;1276;22610;-82
2023/11/30 21:48:51;;;;;;;95.80;46.30;;;;;;;-0.53;100.00;97617.32;269615;1279;22679;-83
2023/11/30 21:55:14;;;;;;;70.10;35.80;;;;;;;-0.48;100.00;97608.66;268964;1279;22537;-81
2023/11/30 22:01:17;;;;;;;86.70;42.50;;;;;;;-0.47;100.00;97598.56;268208;1279;23455;-82
2023/11/30 22:07:20;;;;;;;89.60;42.80;;;;;;;-0.57;100.00;97599.61;270408;1277;22323;-82
2023/11/30 22:13:37;;;;;;;83.40;42.70;;;;;;;-0.63;100.00;97615.46;271351;1280;22359;-82
2023/11/30 22:20:01;;;;;;;88.20;40.20;;;;;;;-0.61;100.00;97615.69;271989;1287;22254;-82
2023/11/30 22:26:04;;;;;;;110.60;54.00;;;;;;;-0.60;100.00;97614.16;271802;1280;22577;-81
2023/11/30 22:32:11;;;;;;;138.40;65.40;;;;;;;-0.58;100.00;97618.63;271079;1273;22235;-82
2023/11/30 22:38:34;;;;;;;123.70;57.00;;;;;;;-0.53;100.00;97620.09;272027;1280;23442;-82
2023/11/30 22:44:36;;;;;;;104.40;52.60;;;;;;;-0.55;100.00;97611.26;272024;1282;22675;-82
2023/11/30 22:50:42;;;;;;;114.60;54.60;;;;;;;-0.65;100.00;97614.71;271839;1279;22216;-82
2023/11/30 22:56:45;;;;;;;114.60;57.30;;;;;;;-0.58;100.00;97626.30;271759;1280;23199;-81
2023/11/30 23:03:08;;;;;;;123.10;57.10;;;;;;;-0.51;100.00;97615.71;271986;1287;22215;-82
2023/11/30 23:09:31;;;;;;;113.10;56.00;;;;;;;-0.45;100.00;97624.27;271726;1279;22189;-81
2023/11/30 23:15:57;;;;;;;112.40;53.10;;;;;;;-0.47;100.00;97620.52;271702;1280;22203;-82
2023/11/30 23:21:59;;;;;;;85.60;40.90;;;;;;;-0.54;100.00;97620.30;271451;1278;24580;-81
2023/11/30 23:28:22;;;;;;;127.50;57.90;;;;;;;-0.60;100.00;97633.85;271929;1283;22274;-82
2023/11/30 23:34:46;;;;;;;128.10;63.00;;;;;;;-0.58;100.00;97625.54;272062;1280;22863;-82
2023/11/30 23:41:12;;;;;;;146.50;66.90;;;;;;;-0.53;100.00;97626.17;271739;1283;22190;-82
2023/11/30 23:47:18;;;;;;;138.90;67.40;;;;;;;-0.48;100.00;97639.84;271500;1279;22928;-81
2023/11/30 23:53:19;;;;;;;159.80;75.90;;;;;;;-0.49;100.00;97620.98;270372;1279;22922;-81
2023/11/30 23:59:21;;;;;;;156.70;72.60;;;;;;;-0.54;100.00;97607.85;270945;1279;22233;-82
